sensor_id;sensor_type;location;lat;lon;timestamp;P1;durP1;ratioP1;P2;durP2;ratioP2
6127;SDS011;7073;42.672;23.256;2022-10-15T00:01:30;14.17;;;8.37;;
6127;SDS011;7073;42.672;23.256;2022-10-15T00:03:56;15.50;;;9.50;;
6127;SDS011;7073;42.672;23.256;2022-10-15T00:06:25;14.00;;;9.00;;
6127;SDS011;7073;42.672;23.256;2022-10-15T00:08:52;15.43;;;9.50;;
6127;SDS011;7073;42.672;23.256;2022-10-15T00:11:20;14.80;;;9.63;;
6127;SDS011;7073;42.672;23.256;2022-10-15T00:13:51;19.67;;;9.07;;
6127;SDS011;7073;42.672;23.256;2022-10-15T00:16:20;14.27;;;9.03;;
6127;SDS011;7073;42.672;23.256;2022-10-15T00:18:50;18.13;;;10.50;;
6127;SDS011;7073;42.672;23.256;2022-10-15T00:21:20;21.40;;;9.40;;
6127;SDS011;7073;42.672;23.256;2022-10-15T00:23:47;14.73;;;8.80;;
6127;SDS011;7073;42.672;23.256;2022-10-15T00:26:15;16.73;;;8.00;;
6127;SDS011;7073;42.672;23.256;2022-10-15T00:28:43;16.03;;;9.00;;
6127;SDS011;7073;42.672;23.256;2022-10-15T00:31:12;14.20;;;9.27;;
6127;SDS011;7073;42.672;23.256;2022-10-15T00:33:40;18.30;;;9.50;;
6127;SDS011;7073;42.672;23.256;2022-10-15T00:36:12;14.10;;;9.60;;
6127;SDS011;7073;42.672;23.256;2022-10-15T00:38:40;15.17;;;9.20;;
6127;SDS011;7073;42.672;23.256;2022-10-15T00:41:07;13.43;;;8.27;;
6127;SDS011;7073;42.672;23.256;2022-10-15T00:43:38;13.20;;;8.20;;
6127;SDS011;7073;42.672;23.256;2022-10-15T00:46:12;10.90;;;7.60;;
6127;SDS011;7073;42.672;23.256;2022-10-15T00:48:43;9.40;;;6.40;;
6127;SDS011;7073;42.672;23.256;2022-10-15T00:51:13;9.50;;;6.40;;
6127;SDS011;7073;42.672;23.256;2022-10-15T00:53:41;8.10;;;6.10;;
6127;SDS011;7073;42.672;23.256;2022-10-15T00:56:08;7.80;;;5.90;;
6127;SDS011;7073;42.672;23.256;2022-10-15T00:58:35;8.87;;;6.43;;
6127;SDS011;7073;42.672;23.256;2022-10-15T01:01:02;8.03;;;5.97;;
6127;SDS011;7073;42.672;23.256;2022-10-15T01:03:29;8.20;;;6.17;;
6127;SDS011;7073;42.672;23.256;2022-10-15T01:05:56;8.63;;;6.03;;
6127;SDS011;7073;42.672;23.256;2022-10-15T01:08:24;9.20;;;5.87;;
6127;SDS011;7073;42.672;23.256;2022-10-15T01:10:54;9.13;;;6.07;;
6127;SDS011;7073;42.672;23.256;2022-10-15T01:13:33;8.10;;;5.97;;
6127;SDS011;7073;42.672;23.256;2022-10-15T01:16:05;10.10;;;6.30;;
6127;SDS011;7073;42.672;23.256;2022-10-15T01:18:38;8.40;;;6.37;;
6127;SDS011;7073;42.672;23.256;2022-10-15T01:21:10;7.97;;;6.50;;
6127;SDS011;7073;42.672;23.256;2022-10-15T01:23:52;11.57;;;6.57;;
6127;SDS011;7073;42.672;23.256;2022-10-15T01:26:56;7.60;;;6.10;;
6127;SDS011;7073;42.672;23.256;2022-10-15T01:32:40;11.17;;;5.93;;
6127;SDS011;7073;42.672;23.256;2022-10-15T01:35:16;8.10;;;6.23;;
6127;SDS011;7073;42.672;23.256;2022-10-15T01:37:53;8.77;;;6.20;;
6127;SDS011;7073;42.672;23.256;2022-10-15T01:40:25;9.43;;;6.37;;
6127;SDS011;7073;42.672;23.256;2022-10-15T01:42:58;8.60;;;6.27;;
6127;SDS011;7073;42.672;23.256;2022-10-15T01:45:31;8.37;;;6.40;;
6127;SDS011;7073;42.672;23.256;2022-10-15T01:48:02;15.27;;;6.20;;
6127;SDS011;7073;42.672;23.256;2022-10-15T01:50:32;8.10;;;5.70;;
6127;SDS011;7073;42.672;23.256;2022-10-15T01:53:01;7.50;;;6.33;;
6127;SDS011;7073;42.672;23.256;2022-10-15T01:55:30;7.70;;;5.93;;
6127;SDS011;7073;42.672;23.256;2022-10-15T01:57:59;9.77;;;6.33;;
6127;SDS011;7073;42.672;23.256;2022-10-15T02:00:29;8.40;;;6.20;;
6127;SDS011;7073;42.672;23.256;2022-10-15T02:02:58;9.00;;;7.00;;
6127;SDS011;7073;42.672;23.256;2022-10-15T02:05:25;11.70;;;6.70;;
6127;SDS011;7073;42.672;23.256;2022-10-15T02:07:58;7.80;;;5.93;;
6127;SDS011;7073;42.672;23.256;2022-10-15T02:10:31;9.60;;;6.83;;
6127;SDS011;7073;42.672;23.256;2022-10-15T02:13:08;11.70;;;7.00;;
6127;SDS011;7073;42.672;23.256;2022-10-15T02:15:43;7.50;;;6.03;;
6127;SDS011;7073;42.672;23.256;2022-10-15T02:18:18;9.13;;;6.70;;
6127;SDS011;7073;42.672;23.256;2022-10-15T02:20:54;8.47;;;6.40;;
6127;SDS011;7073;42.672;23.256;2022-10-15T02:23:23;7.17;;;6.37;;
6127;SDS011;7073;42.672;23.256;2022-10-15T02:25:53;11.70;;;6.47;;
6127;SDS011;7073;42.672;23.256;2022-10-15T02:28:21;8.03;;;6.60;;
6127;SDS011;7073;42.672;23.256;2022-10-15T02:30:51;7.33;;;6.40;;
6127;SDS011;7073;42.672;23.256;2022-10-15T02:33:20;10.10;;;6.47;;
6127;SDS011;7073;42.672;23.256;2022-10-15T02:35:49;7.90;;;6.40;;
6127;SDS011;7073;42.672;23.256;2022-10-15T02:38:18;8.23;;;6.10;;
6127;SDS011;7073;42.672;23.256;2022-10-15T02:40:48;9.43;;;6.10;;
6127;SDS011;7073;42.672;23.256;2022-10-15T02:43:17;8.80;;;6.17;;
6127;SDS011;7073;42.672;23.256;2022-10-15T02:45:46;9.30;;;5.80;;
6127;SDS011;7073;42.672;23.256;2022-10-15T02:48:14;8.57;;;7.10;;
6127;SDS011;7073;42.672;23.256;2022-10-15T02:50:41;16.00;;;6.43;;
6127;SDS011;7073;42.672;23.256;2022-10-15T02:53:08;8.80;;;6.77;;
6127;SDS011;7073;42.672;23.256;2022-10-15T02:55:35;11.13;;;7.00;;
6127;SDS011;7073;42.672;23.256;2022-10-15T02:58:02;14.50;;;6.63;;
6127;SDS011;7073;42.672;23.256;2022-10-15T03:00:29;9.70;;;6.63;;
6127;SDS011;7073;42.672;23.256;2022-10-15T03:02:55;8.07;;;5.80;;
6127;SDS011;7073;42.672;23.256;2022-10-15T03:05:24;10.43;;;7.53;;
6127;SDS011;7073;42.672;23.256;2022-10-15T03:07:51;9.70;;;6.37;;
6127;SDS011;7073;42.672;23.256;2022-10-15T03:10:17;9.60;;;6.77;;
6127;SDS011;7073;42.672;23.256;2022-10-15T03:12:44;8.60;;;6.33;;
6127;SDS011;7073;42.672;23.256;2022-10-15T03:15:11;8.43;;;6.30;;
6127;SDS011;7073;42.672;23.256;2022-10-15T03:17:38;9.17;;;6.30;;
6127;SDS011;7073;42.672;23.256;2022-10-15T03:20:05;8.00;;;6.23;;
6127;SDS011;7073;42.672;23.256;2022-10-15T03:22:34;9.60;;;6.57;;
6127;SDS011;7073;42.672;23.256;2022-10-15T03:25:00;9.80;;;6.83;;
6127;SDS011;7073;42.672;23.256;2022-10-15T03:27:28;7.50;;;6.37;;
6127;SDS011;7073;42.672;23.256;2022-10-15T03:29:54;7.93;;;6.70;;
6127;SDS011;7073;42.672;23.256;2022-10-15T03:32:21;11.60;;;7.33;;
6127;SDS011;7073;42.672;23.256;2022-10-15T03:34:48;9.23;;;6.70;;
6127;SDS011;7073;42.672;23.256;2022-10-15T03:37:15;8.43;;;5.90;;
6127;SDS011;7073;42.672;23.256;2022-10-15T03:39:43;8.83;;;6.30;;
6127;SDS011;7073;42.672;23.256;2022-10-15T03:42:10;8.27;;;6.00;;
6127;SDS011;7073;42.672;23.256;2022-10-15T03:44:37;9.10;;;6.67;;
6127;SDS011;7073;42.672;23.256;2022-10-15T03:47:03;8.23;;;6.73;;
6127;SDS011;7073;42.672;23.256;2022-10-15T03:49:30;10.20;;;6.17;;
6127;SDS011;7073;42.672;23.256;2022-10-15T03:51:57;13.67;;;8.53;;
6127;SDS011;7073;42.672;23.256;2022-10-15T03:54:24;10.33;;;6.70;;
6127;SDS011;7073;42.672;23.256;2022-10-15T03:56:52;8.43;;;6.23;;
6127;SDS011;7073;42.672;23.256;2022-10-15T03:59:19;11.73;;;6.63;;
6127;SDS011;7073;42.672;23.256;2022-10-15T04:01:46;11.20;;;7.10;;
6127;SDS011;7073;42.672;23.256;2022-10-15T04:04:12;9.93;;;6.23;;
6127;SDS011;7073;42.672;23.256;2022-10-15T04:06:39;11.27;;;7.10;;
6127;SDS011;7073;42.672;23.256;2022-10-15T04:09:06;12.90;;;7.47;;
6127;SDS011;7073;42.672;23.256;2022-10-15T04:11:36;8.43;;;6.47;;
6127;SDS011;7073;42.672;23.256;2022-10-15T04:14:04;7.50;;;6.30;;
6127;SDS011;7073;42.672;23.256;2022-10-15T04:16:31;9.77;;;7.47;;
6127;SDS011;7073;42.672;23.256;2022-10-15T04:18:58;8.50;;;6.90;;
6127;SDS011;7073;42.672;23.256;2022-10-15T04:21:25;8.50;;;6.70;;
6127;SDS011;7073;42.672;23.256;2022-10-15T04:23:52;9.83;;;6.50;;
6127;SDS011;7073;42.672;23.256;2022-10-15T04:26:19;12.03;;;6.90;;
6127;SDS011;7073;42.672;23.256;2022-10-15T04:28:46;10.83;;;6.70;;
6127;SDS011;7073;42.672;23.256;2022-10-15T04:31:14;7.47;;;6.53;;
6127;SDS011;7073;42.672;23.256;2022-10-15T04:33:41;10.60;;;6.40;;
6127;SDS011;7073;42.672;23.256;2022-10-15T04:36:10;9.00;;;6.30;;
6127;SDS011;7073;42.672;23.256;2022-10-15T04:38:38;9.03;;;6.17;;
6127;SDS011;7073;42.672;23.256;2022-10-15T04:41:06;12.53;;;7.50;;
6127;SDS011;7073;42.672;23.256;2022-10-15T04:43:34;10.10;;;7.13;;
6127;SDS011;7073;42.672;23.256;2022-10-15T04:46:03;9.83;;;7.03;;
6127;SDS011;7073;42.672;23.256;2022-10-15T04:48:33;13.77;;;7.73;;
6127;SDS011;7073;42.672;23.256;2022-10-15T04:51:04;17.10;;;7.50;;
6127;SDS011;7073;42.672;23.256;2022-10-15T04:53:32;11.70;;;8.00;;
6127;SDS011;7073;42.672;23.256;2022-10-15T04:56:00;12.07;;;7.23;;
6127;SDS011;7073;42.672;23.256;2022-10-15T04:58:28;10.07;;;7.03;;
6127;SDS011;7073;42.672;23.256;2022-10-15T05:00:58;11.77;;;6.97;;
6127;SDS011;7073;42.672;23.256;2022-10-15T05:03:26;10.03;;;6.80;;
6127;SDS011;7073;42.672;23.256;2022-10-15T05:05:58;13.67;;;7.87;;
6127;SDS011;7073;42.672;23.256;2022-10-15T05:08:25;12.73;;;8.27;;
6127;SDS011;7073;42.672;23.256;2022-10-15T05:10:52;15.80;;;7.80;;
6127;SDS011;7073;42.672;23.256;2022-10-15T05:13:19;16.03;;;8.93;;
6127;SDS011;7073;42.672;23.256;2022-10-15T05:15:46;14.37;;;8.70;;
6127;SDS011;7073;42.672;23.256;2022-10-15T05:18:13;12.40;;;8.13;;
6127;SDS011;7073;42.672;23.256;2022-10-15T05:20:39;13.87;;;9.00;;
6127;SDS011;7073;42.672;23.256;2022-10-15T05:23:08;9.33;;;7.13;;
6127;SDS011;7073;42.672;23.256;2022-10-15T05:25:34;12.07;;;7.20;;
6127;SDS011;7073;42.672;23.256;2022-10-15T05:28:01;11.80;;;7.43;;
6127;SDS011;7073;42.672;23.256;2022-10-15T05:30:28;10.30;;;7.67;;
6127;SDS011;7073;42.672;23.256;2022-10-15T05:32:55;15.10;;;7.07;;
6127;SDS011;7073;42.672;23.256;2022-10-15T05:35:22;10.73;;;7.57;;
6127;SDS011;7073;42.672;23.256;2022-10-15T05:37:50;14.53;;;7.50;;
6127;SDS011;7073;42.672;23.256;2022-10-15T05:40:18;12.97;;;8.27;;
6127;SDS011;7073;42.672;23.256;2022-10-15T05:42:49;10.00;;;7.13;;
6127;SDS011;7073;42.672;23.256;2022-10-15T05:45:16;8.87;;;7.13;;
6127;SDS011;7073;42.672;23.256;2022-10-15T05:47:43;13.87;;;7.60;;
6127;SDS011;7073;42.672;23.256;2022-10-15T05:50:10;14.00;;;7.57;;
6127;SDS011;7073;42.672;23.256;2022-10-15T05:52:36;10.60;;;7.80;;
6127;SDS011;7073;42.672;23.256;2022-10-15T05:55:04;10.93;;;7.20;;
6127;SDS011;7073;42.672;23.256;2022-10-15T05:57:32;12.60;;;7.80;;
6127;SDS011;7073;42.672;23.256;2022-10-15T05:59:59;15.33;;;7.90;;
6127;SDS011;7073;42.672;23.256;2022-10-15T06:02:26;11.60;;;7.03;;
6127;SDS011;7073;42.672;23.256;2022-10-15T06:04:53;14.77;;;8.13;;
6127;SDS011;7073;42.672;23.256;2022-10-15T06:07:20;12.03;;;7.60;;
6127;SDS011;7073;42.672;23.256;2022-10-15T06:09:47;13.03;;;7.50;;
6127;SDS011;7073;42.672;23.256;2022-10-15T06:12:14;11.20;;;7.80;;
6127;SDS011;7073;42.672;23.256;2022-10-15T06:14:42;12.33;;;7.70;;
6127;SDS011;7073;42.672;23.256;2022-10-15T06:17:09;9.87;;;6.80;;
6127;SDS011;7073;42.672;23.256;2022-10-15T06:19:35;11.13;;;7.47;;
6127;SDS011;7073;42.672;23.256;2022-10-15T06:22:02;17.67;;;7.80;;
6127;SDS011;7073;42.672;23.256;2022-10-15T06:24:29;15.93;;;7.37;;
6127;SDS011;7073;42.672;23.256;2022-10-15T06:26:56;9.77;;;6.60;;
6127;SDS011;7073;42.672;23.256;2022-10-15T06:29:24;10.00;;;6.57;;
6127;SDS011;7073;42.672;23.256;2022-10-15T06:31:52;10.10;;;6.77;;
6127;SDS011;7073;42.672;23.256;2022-10-15T06:34:19;10.53;;;7.73;;
6127;SDS011;7073;42.672;23.256;2022-10-15T06:36:46;9.13;;;6.37;;
6127;SDS011;7073;42.672;23.256;2022-10-15T06:39:12;16.23;;;8.27;;
6127;SDS011;7073;42.672;23.256;2022-10-15T06:41:39;15.57;;;8.10;;
6127;SDS011;7073;42.672;23.256;2022-10-15T06:44:06;11.90;;;7.23;;
6127;SDS011;7073;42.672;23.256;2022-10-15T06:46:33;17.03;;;8.30;;
6127;SDS011;7073;42.672;23.256;2022-10-15T06:49:01;9.23;;;7.30;;
6127;SDS011;7073;42.672;23.256;2022-10-15T06:51:28;12.43;;;7.40;;
6127;SDS011;7073;42.672;23.256;2022-10-15T06:53:55;9.50;;;7.70;;
6127;SDS011;7073;42.672;23.256;2022-10-15T06:56:21;9.83;;;8.60;;
6127;SDS011;7073;42.672;23.256;2022-10-15T06:58:48;9.50;;;7.10;;
6127;SDS011;7073;42.672;23.256;2022-10-15T07:01:15;12.47;;;8.50;;
6127;SDS011;7073;42.672;23.256;2022-10-15T07:03:42;10.60;;;7.23;;
6127;SDS011;7073;42.672;23.256;2022-10-15T07:06:10;13.50;;;7.03;;
6127;SDS011;7073;42.672;23.256;2022-10-15T07:08:37;9.10;;;6.80;;
6127;SDS011;7073;42.672;23.256;2022-10-15T07:11:04;16.30;;;8.23;;
6127;SDS011;7073;42.672;23.256;2022-10-15T07:13:32;10.70;;;7.80;;
6127;SDS011;7073;42.672;23.256;2022-10-15T07:16:02;13.13;;;7.87;;
6127;SDS011;7073;42.672;23.256;2022-10-15T07:18:30;9.03;;;6.70;;
6127;SDS011;7073;42.672;23.256;2022-10-15T07:20:56;11.27;;;7.20;;
6127;SDS011;7073;42.672;23.256;2022-10-15T07:23:25;9.60;;;6.00;;
6127;SDS011;7073;42.672;23.256;2022-10-15T07:25:52;12.93;;;6.17;;
6127;SDS011;7073;42.672;23.256;2022-10-15T07:28:19;14.40;;;8.90;;
6127;SDS011;7073;42.672;23.256;2022-10-15T07:30:46;10.43;;;7.40;;
6127;SDS011;7073;42.672;23.256;2022-10-15T07:33:13;10.97;;;6.73;;
6127;SDS011;7073;42.672;23.256;2022-10-15T07:35:40;10.20;;;6.13;;
6127;SDS011;7073;42.672;23.256;2022-10-15T07:38:07;10.90;;;6.23;;
6127;SDS011;7073;42.672;23.256;2022-10-15T07:40:36;8.87;;;6.47;;
6127;SDS011;7073;42.672;23.256;2022-10-15T07:43:02;13.27;;;5.93;;
6127;SDS011;7073;42.672;23.256;2022-10-15T07:45:29;11.37;;;6.80;;
6127;SDS011;7073;42.672;23.256;2022-10-15T07:47:56;10.30;;;6.70;;
6127;SDS011;7073;42.672;23.256;2022-10-15T07:50:23;9.87;;;6.27;;
6127;SDS011;7073;42.672;23.256;2022-10-15T07:52:50;9.07;;;6.00;;
6127;SDS011;7073;42.672;23.256;2022-10-15T07:55:16;9.73;;;6.30;;
6127;SDS011;7073;42.672;23.256;2022-10-15T07:57:45;8.17;;;5.70;;
6127;SDS011;7073;42.672;23.256;2022-10-15T08:00:11;13.37;;;7.47;;
6127;SDS011;7073;42.672;23.256;2022-10-15T08:02:38;9.87;;;6.70;;
6127;SDS011;7073;42.672;23.256;2022-10-15T08:05:06;12.60;;;6.13;;
6127;SDS011;7073;42.672;23.256;2022-10-15T08:07:35;11.57;;;6.67;;
6127;SDS011;7073;42.672;23.256;2022-10-15T08:10:02;8.50;;;5.30;;
6127;SDS011;7073;42.672;23.256;2022-10-15T08:12:30;8.77;;;5.40;;
6127;SDS011;7073;42.672;23.256;2022-10-15T08:15:02;12.83;;;5.40;;
6127;SDS011;7073;42.672;23.256;2022-10-15T08:17:29;7.27;;;4.93;;
6127;SDS011;7073;42.672;23.256;2022-10-15T08:19:57;8.47;;;5.67;;
6127;SDS011;7073;42.672;23.256;2022-10-15T08:22:23;8.73;;;5.27;;
6127;SDS011;7073;42.672;23.256;2022-10-15T08:24:50;7.70;;;5.47;;
6127;SDS011;7073;42.672;23.256;2022-10-15T08:27:18;10.20;;;6.10;;
6127;SDS011;7073;42.672;23.256;2022-10-15T08:29:45;10.40;;;5.83;;
6127;SDS011;7073;42.672;23.256;2022-10-15T08:32:14;9.57;;;6.07;;
6127;SDS011;7073;42.672;23.256;2022-10-15T08:34:41;6.90;;;5.07;;
6127;SDS011;7073;42.672;23.256;2022-10-15T08:37:08;12.20;;;5.73;;
6127;SDS011;7073;42.672;23.256;2022-10-15T08:39:34;8.30;;;4.80;;
6127;SDS011;7073;42.672;23.256;2022-10-15T08:42:02;11.10;;;6.20;;
6127;SDS011;7073;42.672;23.256;2022-10-15T08:44:33;7.17;;;5.70;;
6127;SDS011;7073;42.672;23.256;2022-10-15T08:47:06;6.73;;;5.37;;
6127;SDS011;7073;42.672;23.256;2022-10-15T08:49:41;9.10;;;7.33;;
6127;SDS011;7073;42.672;23.256;2022-10-15T08:52:16;6.80;;;5.77;;
6127;SDS011;7073;42.672;23.256;2022-10-15T08:54:48;9.63;;;5.37;;
6127;SDS011;7073;42.672;23.256;2022-10-15T08:57:16;8.23;;;4.97;;
6127;SDS011;7073;42.672;23.256;2022-10-15T08:59:52;6.93;;;5.07;;
6127;SDS011;7073;42.672;23.256;2022-10-15T09:02:24;6.93;;;5.90;;
6127;SDS011;7073;42.672;23.256;2022-10-15T09:05:00;6.67;;;5.33;;
6127;SDS011;7073;42.672;23.256;2022-10-15T09:07:38;7.40;;;4.50;;
6127;SDS011;7073;42.672;23.256;2022-10-15T09:10:12;7.07;;;4.73;;
6127;SDS011;7073;42.672;23.256;2022-10-15T09:12:45;7.57;;;5.17;;
6127;SDS011;7073;42.672;23.256;2022-10-15T09:15:16;7.70;;;5.27;;
6127;SDS011;7073;42.672;23.256;2022-10-15T09:17:47;7.80;;;5.57;;
6127;SDS011;7073;42.672;23.256;2022-10-15T09:20:18;7.00;;;4.53;;
6127;SDS011;7073;42.672;23.256;2022-10-15T09:22:49;6.60;;;4.60;;
6127;SDS011;7073;42.672;23.256;2022-10-15T09:25:17;8.93;;;5.37;;
6127;SDS011;7073;42.672;23.256;2022-10-15T09:27:46;8.70;;;4.70;;
6127;SDS011;7073;42.672;23.256;2022-10-15T09:30:21;6.30;;;5.60;;
6127;SDS011;7073;42.672;23.256;2022-10-15T09:32:58;11.60;;;9.20;;
6127;SDS011;7073;42.672;23.256;2022-10-15T09:35:34;7.60;;;5.20;;
6127;SDS011;7073;42.672;23.256;2022-10-15T09:38:08;6.30;;;4.90;;
6127;SDS011;7073;42.672;23.256;2022-10-15T09:40:51;6.97;;;5.10;;
6127;SDS011;7073;42.672;23.256;2022-10-15T09:43:27;5.43;;;4.90;;
6127;SDS011;7073;42.672;23.256;2022-10-15T09:45:59;8.77;;;5.67;;
6127;SDS011;7073;42.672;23.256;2022-10-15T09:48:27;8.80;;;5.97;;
6127;SDS011;7073;42.672;23.256;2022-10-15T09:51:01;5.87;;;4.73;;
6127;SDS011;7073;42.672;23.256;2022-10-15T09:53:36;9.40;;;5.47;;
6127;SDS011;7073;42.672;23.256;2022-10-15T09:56:12;4.97;;;4.53;;
6127;SDS011;7073;42.672;23.256;2022-10-15T09:58:43;8.73;;;4.27;;
6127;SDS011;7073;42.672;23.256;2022-10-15T10:01:17;6.73;;;5.30;;
6127;SDS011;7073;42.672;23.256;2022-10-15T10:03:45;5.00;;;4.37;;
6127;SDS011;7073;42.672;23.256;2022-10-15T10:06:18;9.00;;;4.80;;
6127;SDS011;7073;42.672;23.256;2022-10-15T10:08:51;7.00;;;5.20;;
6127;SDS011;7073;42.672;23.256;2022-10-15T10:11:21;7.60;;;5.37;;
6127;SDS011;7073;42.672;23.256;2022-10-15T10:13:49;6.17;;;5.57;;
6127;SDS011;7073;42.672;23.256;2022-10-15T10:16:20;4.73;;;4.33;;
6127;SDS011;7073;42.672;23.256;2022-10-15T10:19:02;7.63;;;5.30;;
6127;SDS011;7073;42.672;23.256;2022-10-15T10:21:33;8.57;;;5.57;;
6127;SDS011;7073;42.672;23.256;2022-10-15T10:24:23;5.40;;;4.60;;
6127;SDS011;7073;42.672;23.256;2022-10-15T10:26:54;6.20;;;5.53;;
6127;SDS011;7073;42.672;23.256;2022-10-15T10:29:22;6.77;;;5.33;;
6127;SDS011;7073;42.672;23.256;2022-10-15T10:31:51;6.30;;;5.00;;
6127;SDS011;7073;42.672;23.256;2022-10-15T10:34:20;5.20;;;4.70;;
6127;SDS011;7073;42.672;23.256;2022-10-15T10:36:54;6.63;;;5.10;;
6127;SDS011;7073;42.672;23.256;2022-10-15T10:39:24;9.93;;;5.30;;
6127;SDS011;7073;42.672;23.256;2022-10-15T10:41:53;6.83;;;5.43;;
6127;SDS011;7073;42.672;23.256;2022-10-15T10:44:25;7.30;;;4.90;;
6127;SDS011;7073;42.672;23.256;2022-10-15T10:47:01;7.73;;;5.77;;
6127;SDS011;7073;42.672;23.256;2022-10-15T10:49:34;6.40;;;4.47;;
6127;SDS011;7073;42.672;23.256;2022-10-15T10:52:04;6.50;;;4.90;;
6127;SDS011;7073;42.672;23.256;2022-10-15T10:54:32;5.63;;;4.50;;
6127;SDS011;7073;42.672;23.256;2022-10-15T10:57:00;4.70;;;4.30;;
6127;SDS011;7073;42.672;23.256;2022-10-15T10:59:29;5.60;;;4.90;;
6127;SDS011;7073;42.672;23.256;2022-10-15T11:02:01;4.33;;;3.93;;
6127;SDS011;7073;42.672;23.256;2022-10-15T11:04:32;6.03;;;3.80;;
6127;SDS011;7073;42.672;23.256;2022-10-15T11:07:01;4.40;;;3.83;;
6127;SDS011;7073;42.672;23.256;2022-10-15T11:09:37;4.70;;;4.23;;
6127;SDS011;7073;42.672;23.256;2022-10-15T11:12:22;7.73;;;5.77;;
6127;SDS011;7073;42.672;23.256;2022-10-15T11:15:11;6.77;;;4.93;;
6127;SDS011;7073;42.672;23.256;2022-10-15T11:17:49;10.93;;;7.67;;
6127;SDS011;7073;42.672;23.256;2022-10-15T11:20:24;4.53;;;4.07;;
6127;SDS011;7073;42.672;23.256;2022-10-15T11:23:02;8.23;;;4.33;;
6127;SDS011;7073;42.672;23.256;2022-10-15T11:25:40;7.17;;;4.40;;
6127;SDS011;7073;42.672;23.256;2022-10-15T11:28:18;5.10;;;4.53;;
6127;SDS011;7073;42.672;23.256;2022-10-15T11:30:58;10.23;;;4.10;;
6127;SDS011;7073;42.672;23.256;2022-10-15T11:33:45;8.63;;;4.70;;
6127;SDS011;7073;42.672;23.256;2022-10-15T11:36:31;6.33;;;5.40;;
6127;SDS011;7073;42.672;23.256;2022-10-15T11:39:20;5.70;;;4.53;;
6127;SDS011;7073;42.672;23.256;2022-10-15T11:42:00;5.50;;;3.90;;
6127;SDS011;7073;42.672;23.256;2022-10-15T11:44:42;5.50;;;3.93;;
6127;SDS011;7073;42.672;23.256;2022-10-15T11:47:32;5.83;;;4.20;;
6127;SDS011;7073;42.672;23.256;2022-10-15T11:50:14;6.57;;;4.70;;
6127;SDS011;7073;42.672;23.256;2022-10-15T11:52:50;6.00;;;4.50;;
6127;SDS011;7073;42.672;23.256;2022-10-15T11:55:30;7.10;;;3.80;;
6127;SDS011;7073;42.672;23.256;2022-10-15T11:58:01;4.87;;;4.10;;
6127;SDS011;7073;42.672;23.256;2022-10-15T12:00:36;7.87;;;4.00;;
6127;SDS011;7073;42.672;23.256;2022-10-15T12:03:10;5.63;;;3.67;;
6127;SDS011;7073;42.672;23.256;2022-10-15T12:05:43;6.27;;;3.80;;
6127;SDS011;7073;42.672;23.256;2022-10-15T12:08:15;8.17;;;4.60;;
6127;SDS011;7073;42.672;23.256;2022-10-15T12:10:58;5.63;;;3.83;;
6127;SDS011;7073;42.672;23.256;2022-10-15T12:13:33;5.00;;;4.03;;
6127;SDS011;7073;42.672;23.256;2022-10-15T12:16:13;7.80;;;4.20;;
6127;SDS011;7073;42.672;23.256;2022-10-15T12:18:49;7.23;;;3.40;;
6127;SDS011;7073;42.672;23.256;2022-10-15T12:21:30;5.40;;;3.60;;
6127;SDS011;7073;42.672;23.256;2022-10-15T12:24:00;5.13;;;3.20;;
6127;SDS011;7073;42.672;23.256;2022-10-15T12:26:30;5.30;;;3.70;;
6127;SDS011;7073;42.672;23.256;2022-10-15T12:28:59;3.43;;;3.13;;
6127;SDS011;7073;42.672;23.256;2022-10-15T12:31:46;5.77;;;3.70;;
6127;SDS011;7073;42.672;23.256;2022-10-15T12:34:29;7.10;;;3.33;;
6127;SDS011;7073;42.672;23.256;2022-10-15T12:37:03;8.20;;;3.60;;
6127;SDS011;7073;42.672;23.256;2022-10-15T12:39:33;5.20;;;3.27;;
6127;SDS011;7073;42.672;23.256;2022-10-15T12:42:03;5.60;;;3.70;;
6127;SDS011;7073;42.672;23.256;2022-10-15T12:44:31;7.83;;;3.57;;
6127;SDS011;7073;42.672;23.256;2022-10-15T12:47:00;10.30;;;3.83;;
6127;SDS011;7073;42.672;23.256;2022-10-15T12:55:27;6.30;;;3.53;;
6127;SDS011;7073;42.672;23.256;2022-10-15T12:57:57;8.10;;;3.50;;
6127;SDS011;7073;42.672;23.256;2022-10-15T13:00:38;5.57;;;3.20;;
6127;SDS011;7073;42.672;23.256;2022-10-15T13:03:19;3.00;;;2.70;;
6127;SDS011;7073;42.672;23.256;2022-10-15T13:06:06;11.00;;;4.23;;
6127;SDS011;7073;42.672;23.256;2022-10-15T13:08:42;9.27;;;4.03;;
6127;SDS011;7073;42.672;23.256;2022-10-15T13:11:17;3.83;;;3.40;;
6127;SDS011;7073;42.672;23.256;2022-10-15T13:13:49;3.90;;;3.50;;
6127;SDS011;7073;42.672;23.256;2022-10-15T13:16:19;5.57;;;3.40;;
6127;SDS011;7073;42.672;23.256;2022-10-15T13:18:50;4.30;;;3.33;;
6127;SDS011;7073;42.672;23.256;2022-10-15T13:21:19;4.00;;;3.50;;
6127;SDS011;7073;42.672;23.256;2022-10-15T13:23:47;4.47;;;3.73;;
6127;SDS011;7073;42.672;23.256;2022-10-15T13:26:17;5.60;;;3.27;;
6127;SDS011;7073;42.672;23.256;2022-10-15T13:28:46;4.37;;;3.50;;
6127;SDS011;7073;42.672;23.256;2022-10-15T13:31:16;6.13;;;3.90;;
6127;SDS011;7073;42.672;23.256;2022-10-15T13:33:47;4.63;;;3.50;;
6127;SDS011;7073;42.672;23.256;2022-10-15T13:36:18;6.70;;;3.13;;
6127;SDS011;7073;42.672;23.256;2022-10-15T13:38:51;6.20;;;3.63;;
6127;SDS011;7073;42.672;23.256;2022-10-15T13:41:24;5.20;;;4.50;;
6127;SDS011;7073;42.672;23.256;2022-10-15T13:43:53;6.93;;;4.53;;
6127;SDS011;7073;42.672;23.256;2022-10-15T13:46:24;8.10;;;4.47;;
6127;SDS011;7073;42.672;23.256;2022-10-15T13:48:55;4.67;;;4.27;;
6127;SDS011;7073;42.672;23.256;2022-10-15T13:51:25;6.17;;;4.40;;
6127;SDS011;7073;42.672;23.256;2022-10-15T13:53:58;8.23;;;3.83;;
6127;SDS011;7073;42.672;23.256;2022-10-15T13:56:27;5.03;;;4.00;;
6127;SDS011;7073;42.672;23.256;2022-10-15T13:58:56;4.30;;;3.90;;
6127;SDS011;7073;42.672;23.256;2022-10-15T14:01:26;8.07;;;3.80;;
6127;SDS011;7073;42.672;23.256;2022-10-15T14:03:55;6.47;;;4.03;;
6127;SDS011;7073;42.672;23.256;2022-10-15T14:06:24;4.43;;;3.67;;
6127;SDS011;7073;42.672;23.256;2022-10-15T14:08:53;4.07;;;3.30;;
6127;SDS011;7073;42.672;23.256;2022-10-15T14:11:21;4.03;;;3.63;;
6127;SDS011;7073;42.672;23.256;2022-10-15T14:13:49;4.47;;;3.40;;
6127;SDS011;7073;42.672;23.256;2022-10-15T14:16:18;5.30;;;3.93;;
6127;SDS011;7073;42.672;23.256;2022-10-15T14:18:49;4.83;;;3.97;;
6127;SDS011;7073;42.672;23.256;2022-10-15T14:21:18;4.60;;;3.87;;
6127;SDS011;7073;42.672;23.256;2022-10-15T14:23:59;5.67;;;4.37;;
6127;SDS011;7073;42.672;23.256;2022-10-15T14:26:29;5.73;;;3.43;;
6127;SDS011;7073;42.672;23.256;2022-10-15T14:28:57;8.80;;;3.53;;
6127;SDS011;7073;42.672;23.256;2022-10-15T14:31:28;5.97;;;3.33;;
6127;SDS011;7073;42.672;23.256;2022-10-15T14:33:58;15.57;;;4.10;;
6127;SDS011;7073;42.672;23.256;2022-10-15T14:36:26;3.73;;;3.33;;
6127;SDS011;7073;42.672;23.256;2022-10-15T14:38:54;5.47;;;3.70;;
6127;SDS011;7073;42.672;23.256;2022-10-15T14:41:53;7.90;;;3.53;;
6127;SDS011;7073;42.672;23.256;2022-10-15T14:44:20;6.43;;;4.20;;
6127;SDS011;7073;42.672;23.256;2022-10-15T14:46:48;7.43;;;3.53;;
6127;SDS011;7073;42.672;23.256;2022-10-15T14:49:25;6.13;;;4.90;;
6127;SDS011;7073;42.672;23.256;2022-10-15T14:51:55;8.30;;;4.80;;
6127;SDS011;7073;42.672;23.256;2022-10-15T14:54:26;7.60;;;5.10;;
6127;SDS011;7073;42.672;23.256;2022-10-15T14:56:58;12.73;;;6.10;;
6127;SDS011;7073;42.672;23.256;2022-10-15T14:59:27;6.80;;;4.50;;
6127;SDS011;7073;42.672;23.256;2022-10-15T15:01:57;6.20;;;4.60;;
6127;SDS011;7073;42.672;23.256;2022-10-15T15:04:35;7.30;;;4.77;;
6127;SDS011;7073;42.672;23.256;2022-10-15T15:07:10;6.40;;;4.40;;
6127;SDS011;7073;42.672;23.256;2022-10-15T15:09:39;7.40;;;4.67;;
6127;SDS011;7073;42.672;23.256;2022-10-15T15:12:08;9.10;;;4.67;;
6127;SDS011;7073;42.672;23.256;2022-10-15T15:14:42;9.73;;;5.87;;
6127;SDS011;7073;42.672;23.256;2022-10-15T15:17:12;7.37;;;5.40;;
6127;SDS011;7073;42.672;23.256;2022-10-15T15:19:45;7.53;;;5.70;;
6127;SDS011;7073;42.672;23.256;2022-10-15T15:22:14;14.10;;;5.37;;
6127;SDS011;7073;42.672;23.256;2022-10-15T15:24:43;13.00;;;8.47;;
6127;SDS011;7073;42.672;23.256;2022-10-15T15:27:23;9.00;;;4.80;;